createdAt,value
2018-12-12T00:02:18.223Z,13.97
2018-12-12T00:04:47.128Z,12.30
2018-12-12T00:07:15.975Z,17.17
2018-12-12T00:09:44.835Z,13.33
2018-12-12T00:12:13.680Z,12.57
2018-12-12T00:14:42.581Z,13.00
2018-12-12T00:17:11.427Z,12.47
2018-12-12T00:19:40.331Z,10.93
2018-12-12T00:22:09.193Z,11.83
2018-12-12T00:24:38.073Z,14.13
2018-12-12T00:27:06.964Z,14.40
2018-12-12T00:29:35.896Z,15.43
2018-12-12T00:32:04.768Z,12.60
2018-12-12T00:34:33.686Z,12.17
2018-12-12T00:37:02.711Z,14.83
2018-12-12T00:39:31.599Z,12.07
2018-12-12T00:42:00.473Z,13.00
2018-12-12T00:44:29.365Z,16.20
2018-12-12T00:46:58.675Z,18.30
2018-12-12T00:49:27.565Z,13.60
2018-12-12T00:51:56.748Z,14.57
2018-12-12T00:54:26.111Z,14.67
2018-12-12T00:56:55.030Z,15.60
2018-12-12T00:59:23.991Z,16.83
2018-12-12T01:01:52.856Z,18.83
2018-12-12T01:04:21.720Z,19.00
2018-12-12T01:06:50.616Z,23.77
2018-12-12T01:09:19.543Z,19.80
2018-12-12T01:11:53.809Z,19.63
2018-12-12T01:14:22.678Z,22.70
2018-12-12T01:16:51.554Z,18.50
2018-12-12T01:19:20.453Z,17.63
2018-12-12T01:21:49.366Z,18.63
2018-12-12T01:24:18.265Z,18.97
2018-12-12T01:26:47.156Z,20.63
2018-12-12T01:29:16.077Z,20.13
2018-12-12T01:31:45.250Z,20.17
2018-12-12T01:34:14.138Z,22.53
2018-12-12T01:36:43.041Z,20.53
2018-12-12T01:39:11.959Z,19.77
2018-12-12T01:41:41.251Z,20.87
2018-12-12T01:44:10.149Z,24.77
2018-12-12T01:46:39.024Z,19.87
2018-12-12T01:49:08.463Z,22.90
2018-12-12T01:51:37.306Z,21.47
2018-12-12T01:54:06.196Z,18.60
2018-12-12T01:56:35.109Z,21.23
2018-12-12T01:59:04.516Z,22.00
2018-12-12T02:01:33.429Z,23.37
2018-12-12T02:04:02.299Z,20.33
2018-12-12T02:06:31.187Z,19.83
2018-12-12T02:09:00.079Z,21.23
2018-12-12T02:11:29.051Z,24.43
2018-12-12T02:13:57.941Z,22.03
2018-12-12T02:16:26.827Z,19.43
2018-12-12T02:18:56.239Z,22.30
2018-12-12T02:21:25.229Z,21.83
2018-12-12T02:23:54.326Z,23.90
2018-12-12T02:26:23.238Z,23.03
2018-12-12T02:28:52.137Z,19.63
2018-12-12T02:31:21.001Z,22.07
2018-12-12T02:33:49.894Z,20.80
2018-12-12T02:36:19.068Z,18.83
2018-12-12T02:38:47.952Z,22.10
2018-12-12T02:41:16.868Z,23.27
2018-12-12T02:43:45.756Z,21.43
2018-12-12T02:46:14.640Z,20.53
2018-12-12T02:48:43.952Z,21.27
2018-12-12T02:51:12.836Z,22.37
2018-12-12T02:53:41.725Z,24.20
2018-12-12T02:56:10.922Z,25.10
2018-12-12T02:58:39.806Z,24.70
2018-12-12T03:01:08.703Z,24.13
2018-12-12T03:03:37.588Z,21.97
2018-12-12T03:06:06.483Z,26.33
2018-12-12T03:08:35.379Z,24.47
2018-12-12T03:11:04.264Z,21.47
2018-12-12T03:13:33.587Z,22.83
2018-12-12T03:16:02.807Z,23.07
2018-12-12T03:18:31.818Z,20.87
2018-12-12T03:21:00.713Z,21.47
2018-12-12T03:23:29.563Z,24.37
2018-12-12T03:25:58.910Z,19.70
2018-12-12T03:28:27.796Z,18.33
2018-12-12T03:30:56.691Z,20.70
2018-12-12T03:33:25.878Z,24.70
2018-12-12T03:35:54.819Z,23.13
2018-12-12T03:38:23.706Z,24.07
2018-12-12T03:40:53.019Z,24.13
2018-12-12T03:43:21.894Z,18.73
2018-12-12T03:45:50.771Z,20.30
2018-12-12T03:48:21.788Z,20.40
2018-12-12T03:50:51.007Z,20.80
2018-12-12T03:53:19.861Z,22.87
2018-12-12T03:55:48.999Z,22.00
2018-12-12T03:58:18.655Z,23.13
2018-12-12T04:00:47.496Z,26.93
2018-12-12T04:03:16.352Z,21.47
2018-12-12T04:05:46.022Z,25.27
2018-12-12T04:08:14.880Z,21.83
2018-12-12T04:10:43.767Z,27.47
2018-12-12T04:13:12.794Z,24.90
2018-12-12T04:15:41.680Z,23.03
2018-12-12T04:18:10.527Z,23.87
2018-12-12T04:20:39.365Z,27.73
2018-12-12T04:23:08.459Z,24.30
2018-12-12T04:25:37.710Z,22.37
2018-12-12T04:28:06.544Z,28.50
2018-12-12T04:30:35.386Z,23.87
2018-12-12T04:33:04.635Z,25.40
2018-12-12T04:35:33.448Z,22.60
2018-12-12T04:38:02.300Z,29.17
2018-12-12T04:40:31.451Z,24.50
2018-12-12T04:43:00.304Z,25.63
2018-12-12T04:45:29.133Z,25.40
2018-12-12T04:47:58.300Z,25.60
2018-12-12T04:50:27.384Z,23.30
2018-12-12T04:52:56.383Z,28.00
2018-12-12T04:55:25.267Z,24.87
2018-12-12T04:57:54.607Z,30.43
2018-12-12T05:00:23.462Z,27.30
2018-12-12T05:02:52.931Z,30.07
2018-12-12T05:05:21.866Z,26.70
2018-12-12T05:07:50.927Z,25.97
2018-12-12T05:10:19.774Z,25.83
2018-12-12T05:12:48.616Z,24.87
2018-12-12T05:15:17.454Z,23.47
2018-12-12T05:17:46.310Z,23.67
2018-12-12T05:20:15.391Z,24.80
2018-12-12T05:22:44.228Z,22.47
2018-12-12T05:25:13.084Z,23.10
2018-12-12T05:27:41.901Z,22.37
2018-12-12T05:30:10.752Z,24.43
2018-12-12T05:32:39.580Z,25.33
2018-12-12T05:35:08.731Z,24.07
2018-12-12T05:37:37.570Z,24.47
2018-12-12T05:40:07.544Z,21.17
2018-12-12T05:42:36.630Z,24.87
2018-12-12T05:45:06.592Z,21.73
2018-12-12T05:47:35.416Z,23.20
2018-12-12T05:50:04.871Z,22.33
2018-12-12T05:52:33.753Z,21.63
2018-12-12T05:55:02.835Z,19.67
2018-12-12T05:57:31.664Z,20.70
2018-12-12T06:00:00.543Z,24.00
2018-12-12T06:02:29.454Z,23.97
2018-12-12T06:04:58.316Z,22.83
2018-12-12T06:07:27.193Z,23.40
2018-12-12T06:09:56.263Z,25.17
2018-12-12T06:12:25.130Z,25.10
2018-12-12T06:14:54.235Z,24.67
2018-12-12T06:17:23.163Z,22.90
2018-12-12T06:19:52.499Z,24.43
2018-12-12T06:22:21.839Z,23.97
2018-12-12T06:24:51.094Z,21.17
2018-12-12T06:27:19.979Z,21.13
2018-12-12T06:29:48.841Z,20.57
2018-12-12T06:32:17.719Z,18.50
2018-12-12T06:34:46.655Z,18.30
2018-12-12T06:37:15.608Z,18.73
2018-12-12T06:39:44.559Z,21.77
2018-12-12T06:42:13.443Z,21.90
2018-12-12T06:44:42.388Z,19.57
2018-12-12T06:47:11.327Z,20.30
2018-12-12T06:49:40.234Z,18.70
2018-12-12T06:52:09.819Z,19.70
2018-12-12T06:54:38.757Z,22.40
2018-12-12T06:57:08.276Z,21.30
2018-12-12T06:59:37.274Z,29.37
2018-12-12T07:02:06.612Z,24.87
2018-12-12T07:04:35.507Z,22.40
2018-12-12T07:07:06.054Z,19.90
2018-12-12T07:09:34.892Z,23.87
2018-12-12T07:12:03.984Z,22.40
2018-12-12T07:14:32.768Z,23.03
2018-12-12T07:17:01.663Z,21.33
2018-12-12T07:19:31.169Z,23.23
2018-12-12T07:22:00.221Z,24.00
2018-12-12T07:24:29.285Z,20.17
2018-12-12T07:26:58.148Z,22.70
2018-12-12T07:29:27.378Z,20.87
2018-12-12T07:31:56.643Z,23.57
2018-12-12T07:34:25.496Z,19.57
2018-12-12T07:36:54.327Z,24.87
2018-12-12T07:39:23.197Z,20.27
2018-12-12T07:41:52.041Z,18.20
2018-12-12T07:44:21.303Z,19.87
2018-12-12T07:46:50.550Z,21.33
2018-12-12T07:49:19.854Z,21.63
2018-12-12T07:51:48.692Z,22.33
2018-12-12T07:54:17.531Z,21.87
2018-12-12T07:56:46.390Z,16.93
2018-12-12T07:59:15.215Z,18.73
2018-12-12T08:01:44.098Z,17.00
2018-12-12T08:04:13.059Z,18.83
2018-12-12T08:06:41.966Z,21.20
2018-12-12T08:09:11.257Z,19.33
2018-12-12T08:11:40.159Z,19.57
2018-12-12T08:14:09.049Z,21.30
2018-12-12T08:16:37.957Z,19.50
2018-12-12T08:19:06.813Z,17.57
2018-12-12T08:21:35.643Z,17.83
2018-12-12T08:24:04.867Z,18.80
2018-12-12T08:26:33.826Z,23.93
2018-12-12T08:29:03.189Z,18.63
2018-12-12T08:31:32.168Z,19.63
2018-12-12T08:34:01.083Z,17.00
2018-12-12T08:36:37.105Z,16.37
2018-12-12T08:39:07.869Z,18.93
2018-12-12T08:41:36.737Z,19.37
2018-12-12T08:44:05.991Z,16.30
2018-12-12T08:46:35.130Z,19.80
2018-12-12T08:49:04.355Z,17.30
2018-12-12T08:51:33.179Z,17.57
2018-12-12T08:54:02.523Z,21.87
2018-12-12T08:56:31.495Z,20.57
2018-12-12T08:59:00.368Z,18.27
2018-12-12T09:01:30.215Z,17.00
2018-12-12T09:03:59.091Z,18.40
2018-12-12T09:07:05.204Z,16.90
2018-12-12T09:09:34.071Z,20.23
2018-12-12T09:12:03.114Z,17.47
2018-12-12T09:14:32.016Z,14.73
2018-12-12T09:17:00.923Z,17.13
2018-12-12T09:19:29.823Z,13.53
2018-12-12T09:21:58.951Z,15.50
2018-12-12T09:24:27.864Z,15.53
2018-12-12T09:26:56.780Z,11.30
2018-12-12T09:29:25.698Z,13.73
2018-12-12T09:31:55.049Z,14.17
2018-12-12T09:34:24.046Z,14.90
2018-12-12T09:36:52.909Z,13.13
2018-12-12T09:39:21.805Z,10.20
2018-12-12T09:41:50.729Z,15.03
2018-12-12T09:44:19.859Z,10.37
2018-12-12T09:46:48.731Z,9.97
2018-12-12T09:49:17.548Z,13.00
2018-12-12T09:51:46.367Z,12.30
2018-12-12T09:54:15.226Z,9.17
2018-12-12T09:56:44.139Z,10.07
2018-12-12T09:59:12.967Z,8.90
2018-12-12T10:01:41.780Z,11.10
2018-12-12T10:04:10.843Z,9.23
2018-12-12T10:06:39.647Z,10.27
2018-12-12T10:09:08.591Z,14.40
2018-12-12T10:11:37.639Z,11.47
2018-12-12T10:14:06.510Z,10.97
2018-12-12T10:16:35.414Z,11.00
2018-12-12T10:19:04.246Z,9.07
2018-12-12T10:21:33.163Z,8.20
2018-12-12T10:24:02.005Z,9.10
2018-12-12T10:26:30.879Z,7.30
2018-12-12T10:29:00.138Z,12.23
2018-12-12T10:31:29.605Z,10.90
2018-12-12T10:33:58.480Z,13.70
2018-12-12T10:36:27.299Z,10.80
2018-12-12T10:38:56.135Z,10.33
2018-12-12T10:41:25.234Z,9.93
2018-12-12T10:43:54.415Z,11.20
2018-12-12T10:46:23.225Z,7.47
2018-12-12T10:48:52.126Z,9.20
2018-12-12T10:51:20.985Z,8.07
2018-12-12T10:53:49.822Z,9.07
2018-12-12T10:56:18.683Z,9.13
2018-12-12T10:58:47.547Z,6.07
2018-12-12T11:01:21.635Z,7.50
2018-12-12T11:03:50.505Z,6.17
2018-12-12T11:06:19.401Z,8.67
2018-12-12T11:08:48.271Z,7.70
2018-12-12T11:11:17.165Z,8.97
2018-12-12T11:13:46.852Z,8.13
2018-12-12T11:16:15.928Z,7.43
2018-12-12T11:18:44.820Z,6.77
2018-12-12T11:21:14.146Z,6.90
2018-12-12T11:23:43.037Z,6.20
2018-12-12T11:26:11.939Z,6.47
2018-12-12T11:28:40.789Z,7.60
2018-12-12T11:31:09.668Z,7.77
2018-12-12T11:33:38.478Z,5.90
2018-12-12T11:36:07.355Z,6.00
2018-12-12T11:38:36.255Z,7.83
2018-12-12T11:41:05.558Z,6.43
2018-12-12T11:43:34.467Z,6.63
2018-12-12T11:46:03.347Z,7.00
2018-12-12T11:48:32.271Z,6.10
2018-12-12T11:51:01.204Z,6.30
2018-12-12T11:53:30.120Z,6.60
2018-12-12T11:55:59.083Z,6.80
2018-12-12T11:58:27.960Z,7.40
2018-12-12T12:00:56.912Z,5.83
2018-12-12T12:03:26.011Z,5.93
2018-12-12T12:05:54.827Z,5.77
2018-12-12T12:08:24.195Z,6.13
2018-12-12T12:10:53.104Z,6.40
2018-12-12T12:13:22.259Z,6.97
2018-12-12T12:15:51.736Z,7.43
2018-12-12T12:18:20.624Z,8.40
2018-12-12T12:20:49.510Z,8.50
2018-12-12T12:23:18.415Z,6.93
2018-12-12T12:25:47.402Z,5.83
2018-12-12T12:28:16.259Z,6.00
2018-12-12T12:30:45.079Z,6.27
2018-12-12T12:33:13.971Z,6.20
2018-12-12T12:35:42.862Z,7.57
2018-12-12T12:38:11.836Z,6.60
2018-12-12T12:40:40.937Z,7.87
2018-12-12T12:43:10.099Z,5.63
2018-12-12T12:45:39.316Z,5.30
2018-12-12T12:48:08.540Z,5.50
2018-12-12T12:50:37.451Z,6.47
2018-12-12T12:53:06.310Z,6.20
2018-12-12T12:55:35.174Z,6.40
2018-12-12T12:58:04.282Z,7.10
2018-12-12T13:00:33.078Z,7.07
2018-12-12T13:03:01.904Z,6.53
2018-12-12T13:05:31.239Z,5.63
2018-12-12T13:08:00.049Z,7.17
2018-12-12T13:10:29.346Z,6.60
2018-12-12T13:12:58.538Z,7.10
2018-12-12T13:15:28.156Z,7.77
2018-12-12T13:17:56.995Z,7.53
2018-12-12T13:20:26.049Z,7.30
2018-12-12T13:22:54.897Z,7.97
2018-12-12T13:25:23.722Z,8.07
2018-12-12T13:27:52.545Z,10.00
2018-12-12T13:30:21.321Z,9.17
2018-12-12T13:32:50.131Z,7.33
2018-12-12T13:35:19.347Z,7.17
2018-12-12T13:37:48.205Z,8.40
2018-12-12T13:40:16.989Z,6.73
2018-12-12T13:42:45.786Z,7.37
2018-12-12T13:45:14.607Z,7.70
2018-12-12T13:47:43.813Z,7.77
2018-12-12T13:50:12.903Z,7.97
2018-12-12T13:52:41.703Z,7.37
2018-12-12T13:55:10.805Z,8.90
2018-12-12T13:57:39.590Z,7.83
2018-12-12T14:00:09.126Z,9.03
2018-12-12T14:02:37.912Z,7.43
2018-12-12T14:05:07.260Z,7.90
2018-12-12T14:07:36.093Z,7.43
2018-12-12T14:10:05.715Z,7.13
2018-12-12T14:12:34.751Z,8.00
2018-12-12T14:15:04.449Z,8.00
2018-12-12T14:17:33.296Z,7.80
2018-12-12T14:20:02.137Z,8.17
2018-12-12T14:22:30.979Z,8.00
2018-12-12T14:25:00.299Z,8.23
2018-12-12T14:27:29.159Z,8.37
2018-12-12T14:29:58.364Z,6.77
2018-12-12T14:32:27.310Z,6.50
2018-12-12T14:34:56.181Z,6.10
2018-12-12T14:37:25.021Z,5.27
2018-12-12T14:39:53.823Z,6.03
2018-12-12T14:42:22.641Z,6.67
2018-12-12T14:44:51.464Z,5.47
2018-12-12T14:47:20.240Z,7.70
2018-12-12T14:49:49.300Z,6.47
2018-12-12T14:52:18.362Z,6.00
2018-12-12T14:54:47.176Z,5.57
2018-12-12T14:57:15.983Z,7.40
2018-12-12T14:59:45.030Z,7.07
2018-12-12T15:02:13.979Z,6.10
2018-12-12T15:04:42.779Z,6.03
2018-12-12T15:07:11.541Z,6.63
2018-12-12T15:09:40.429Z,4.93
2018-12-12T15:12:09.313Z,7.63
2018-12-12T15:14:38.137Z,5.57
2018-12-12T15:17:06.996Z,5.23
2018-12-12T15:19:35.794Z,4.27
2018-12-12T15:22:05.409Z,4.47
2018-12-12T15:24:35.491Z,4.53
2018-12-12T15:27:05.078Z,3.90
2018-12-12T15:29:33.946Z,3.57
2018-12-12T15:32:03.411Z,3.40
2018-12-12T15:34:42.334Z,3.37
2018-12-12T15:37:15.072Z,3.17
2018-12-12T15:39:50.208Z,3.43
2018-12-12T15:42:23.900Z,3.90
2018-12-12T15:44:58.084Z,2.90
2018-12-12T15:47:31.208Z,2.80
2018-12-12T15:50:15.035Z,3.17
2018-12-12T15:52:43.869Z,3.77
2018-12-12T15:55:12.691Z,3.80
2018-12-12T15:57:41.490Z,3.93
2018-12-12T16:00:10.789Z,3.53
2018-12-12T16:02:40.109Z,3.67
2018-12-12T16:05:08.879Z,5.50
2018-12-12T16:07:37.711Z,4.67
2018-12-12T16:10:07.574Z,7.80
2018-12-12T16:12:36.410Z,5.40
2018-12-12T16:15:05.979Z,4.97
2018-12-12T16:17:35.137Z,4.93
2018-12-12T16:20:04.887Z,5.77
2018-12-12T16:22:33.678Z,5.03
2018-12-12T16:25:02.999Z,5.90
2018-12-12T16:27:32.215Z,6.53
2018-12-12T16:30:01.417Z,7.40
2018-12-12T16:32:30.301Z,8.43
2018-12-12T16:34:59.094Z,6.20
2018-12-12T16:37:29.672Z,6.00
2018-12-12T16:39:58.521Z,5.07
2018-12-12T16:42:28.012Z,4.60
2018-12-12T16:44:56.866Z,4.67
2018-12-12T16:47:25.676Z,5.33
2018-12-12T16:49:54.568Z,6.50
2018-12-12T16:52:23.977Z,4.83
2018-12-12T16:54:52.830Z,6.37
2018-12-12T16:57:21.616Z,6.13
2018-12-12T16:59:50.613Z,5.87
2018-12-12T17:02:19.526Z,5.60
2018-12-12T17:04:48.342Z,4.93
2018-12-12T17:07:17.772Z,7.27
2018-12-12T17:09:46.813Z,8.20
2018-12-12T17:12:15.646Z,7.07
2018-12-12T17:14:44.575Z,7.07
2018-12-12T17:17:13.378Z,6.43
2018-12-12T17:19:42.212Z,6.43
2018-12-12T17:22:11.053Z,8.20
2018-12-12T17:24:39.861Z,6.83
2018-12-12T17:27:09.152Z,6.50
2018-12-12T17:29:38.019Z,6.57
2018-12-12T17:32:07.077Z,10.23
2018-12-12T17:34:36.313Z,6.47
2018-12-12T17:37:05.563Z,7.73
2018-12-12T17:39:34.390Z,6.47
2018-12-12T17:42:03.291Z,7.50
2018-12-12T17:44:32.107Z,6.37
2018-12-12T17:47:00.915Z,8.70
2018-12-12T17:49:29.749Z,8.93
2018-12-12T17:51:58.997Z,8.47
2018-12-12T17:54:27.797Z,7.20
2018-12-12T17:56:56.601Z,7.07
2018-12-12T17:59:25.461Z,7.73
2018-12-12T18:01:54.529Z,10.60
2018-12-12T18:04:23.345Z,7.60
2018-12-12T18:06:52.170Z,7.57
2018-12-12T18:09:21.036Z,6.93
2018-12-12T18:11:49.861Z,8.63
2018-12-12T18:14:18.685Z,9.30
2018-12-12T18:16:47.874Z,7.10
2018-12-12T18:19:16.693Z,5.87
2018-12-12T18:21:45.489Z,5.70
2018-12-12T18:24:14.275Z,5.10
2018-12-12T18:26:43.803Z,4.60
2018-12-12T18:29:12.878Z,6.10
2018-12-12T18:31:41.710Z,6.00
2018-12-12T18:34:10.509Z,5.03
2018-12-12T18:36:39.309Z,5.20
2018-12-12T18:39:08.685Z,6.37
2018-12-12T18:41:37.531Z,5.63
2018-12-12T18:44:06.375Z,4.93
2018-12-12T18:46:35.242Z,4.93
2018-12-12T18:49:04.495Z,4.70
2018-12-12T18:51:33.742Z,5.43
2018-12-12T18:54:02.608Z,4.70
2018-12-12T18:56:31.407Z,4.67
2018-12-12T18:59:02.103Z,4.17
2018-12-12T19:01:31.673Z,4.13
2018-12-12T19:04:00.538Z,4.83
2018-12-12T19:06:29.367Z,6.47
2018-12-12T19:08:58.173Z,4.80
2018-12-12T19:11:26.981Z,4.93
2018-12-12T19:13:55.797Z,7.87
2018-12-12T19:16:24.633Z,5.60
2018-12-12T19:18:53.541Z,6.47
2018-12-12T19:21:22.359Z,4.80
2018-12-12T19:23:51.253Z,4.03
2018-12-12T19:26:20.037Z,5.00
2018-12-12T19:28:48.873Z,4.47
2018-12-12T19:31:17.697Z,4.60
2018-12-12T19:33:46.595Z,4.57
2018-12-12T19:36:15.418Z,6.07
2018-12-12T19:38:45.201Z,3.90
2018-12-12T19:41:14.150Z,3.60
2018-12-12T19:43:43.189Z,3.47
2018-12-12T19:46:12.169Z,3.60
2018-12-12T19:48:44.321Z,3.73
2018-12-12T19:51:13.117Z,5.37
2018-12-12T19:53:44.209Z,4.10
2018-12-12T19:56:12.969Z,3.73
2018-12-12T19:58:41.776Z,4.23
2018-12-12T20:01:10.606Z,3.97
2018-12-12T20:03:40.469Z,4.30
2018-12-12T20:06:09.652Z,4.57
2018-12-12T20:08:39.016Z,4.37
2018-12-12T20:11:08.572Z,4.97
2018-12-12T20:13:37.420Z,4.27
2018-12-12T20:16:06.605Z,3.97
2018-12-12T20:18:35.404Z,4.30
2018-12-12T20:21:04.596Z,4.27
2018-12-12T20:23:33.740Z,4.80
2018-12-12T20:26:02.538Z,4.33
2018-12-12T20:28:31.345Z,5.07
2018-12-12T20:31:00.181Z,4.07
2018-12-12T20:33:29.279Z,4.43
2018-12-12T20:35:58.044Z,4.37
2018-12-12T20:38:30.150Z,4.30
2018-12-12T20:40:59.162Z,4.77
2018-12-12T20:43:28.043Z,4.47
2018-12-12T20:45:57.037Z,4.20
2018-12-12T20:48:25.813Z,4.17
2018-12-12T20:50:55.179Z,4.07
2018-12-12T20:53:23.975Z,4.30
2018-12-12T20:55:52.806Z,4.13
2018-12-12T20:58:21.669Z,7.10
2018-12-12T21:00:50.461Z,7.00
2018-12-12T21:03:19.281Z,4.67
2018-12-12T21:05:54.337Z,4.23
2018-12-12T21:08:36.201Z,4.20
2018-12-12T21:11:05.042Z,4.97
2018-12-12T21:13:33.868Z,5.53
2018-12-12T21:16:02.665Z,4.97
2018-12-12T21:18:31.473Z,5.73
2018-12-12T21:21:00.288Z,4.60
2018-12-12T21:23:29.118Z,5.97
2018-12-12T21:25:58.397Z,5.23
2018-12-12T21:28:27.190Z,5.90
2018-12-12T21:30:56.041Z,4.83
2018-12-12T21:33:25.247Z,4.80
2018-12-12T21:35:54.034Z,5.17
2018-12-12T21:38:22.838Z,5.70
2018-12-12T21:40:52.047Z,10.23
2018-12-12T21:43:20.834Z,6.57
2018-12-12T21:45:52.656Z,6.40
2018-12-12T21:48:21.474Z,6.30
2018-12-12T21:50:50.271Z,5.50
2018-12-12T21:53:19.069Z,6.83
2018-12-12T21:55:47.882Z,6.23
2018-12-12T21:58:16.933Z,5.80
2018-12-12T22:00:45.988Z,6.70
2018-12-12T22:03:15.350Z,6.20
2018-12-12T22:05:44.871Z,5.90
2018-12-12T22:08:13.657Z,6.87
2018-12-12T22:10:42.694Z,5.83
2018-12-12T22:13:11.474Z,5.70
2018-12-12T22:15:40.282Z,6.87
2018-12-12T22:18:09.038Z,7.40
2018-12-12T22:20:37.893Z,7.60
2018-12-12T22:23:07.073Z,7.70
2018-12-12T22:25:35.884Z,6.73
2018-12-12T22:28:04.682Z,7.00
2018-12-12T22:30:33.549Z,7.57
2018-12-12T22:33:02.362Z,6.53
2018-12-12T22:35:31.174Z,6.97
2018-12-12T22:37:59.985Z,8.77
2018-12-12T22:40:28.770Z,8.57
2018-12-12T22:42:57.619Z,7.43
2018-12-12T22:45:26.422Z,6.97
2018-12-12T22:47:55.625Z,6.43
2018-12-12T22:50:24.417Z,9.63
2018-12-12T22:52:53.611Z,7.80
2018-12-12T22:55:22.441Z,8.37
2018-12-12T22:57:51.655Z,8.00
2018-12-12T23:00:26.062Z,7.67
2018-12-12T23:02:55.101Z,7.30
2018-12-12T23:05:24.302Z,7.37
2018-12-12T23:07:53.081Z,8.50
2018-12-12T23:10:21.901Z,5.97
2018-12-12T23:12:50.741Z,6.60
2018-12-12T23:15:19.546Z,6.77
2018-12-12T23:17:48.364Z,7.43
2018-12-12T23:20:17.173Z,6.63
2018-12-12T23:22:46.245Z,6.80
2018-12-12T23:25:15.073Z,6.57
2018-12-12T23:27:43.905Z,7.40
2018-12-12T23:30:12.722Z,7.93
2018-12-12T23:32:41.545Z,6.67
2018-12-12T23:35:10.601Z,6.90
2018-12-12T23:37:39.405Z,6.20
2018-12-12T23:40:08.653Z,7.60
2018-12-12T23:42:37.475Z,7.43
2018-12-12T23:45:06.909Z,7.33
2018-12-12T23:47:35.718Z,7.20
2018-12-12T23:50:05.467Z,6.20
2018-12-12T23:52:34.849Z,8.83
2018-12-12T23:55:04.058Z,8.03
2018-12-12T23:57:32.848Z,8.17
